Time;durP1;ratioP1;P1;durP2;ratioP2;P2;SDS_P1;SDS_P2;PMS_P1;PMS_P2;Temp;Humidity;BMP_temperature;BMP_pressure;BME280_temperature;BME280_humidity;BME280_pressure;Samples;Min_cycle;Max_cycle;Signal;HPM_P1;HPM_P2
2024/03/02 00:00:11;;;;;;;3.33;1.00;;;4.10;99.90;;;;;;4677498;28;9999809;-68
2024/03/02 00:02:44;;;;;;;3.08;1.02;;;4.10;99.90;;;;;;5027052;28;20053;-68
2024/03/02 00:05:14;;;;;;;7.78;1.23;;;4.10;99.90;;;;;;5025774;28;20117;-68
2024/03/02 00:07:42;;;;;;;6.68;0.80;;;4.10;99.90;;;;;;5033777;28;20056;-68
2024/03/02 00:10:10;;;;;;;10.95;1.58;;;4.10;99.90;;;;;;5022626;28;20520;-67
2024/03/02 00:12:38;;;;;;;3.55;0.82;;;4.10;99.90;;;;;;5021512;28;20080;-69
2024/03/02 00:15:23;;;;;;;2.05;0.77;;;4.10;99.90;;;;;;5026955;28;20041;-69
2024/03/02 00:17:54;;;;;;;6.80;1.52;;;4.10;99.90;;;;;;5022404;28;20223;-69
2024/03/02 00:20:22;;;;;;;3.80;0.90;;;4.00;99.90;;;;;;5025734;28;20575;-69
2024/03/02 00:22:50;;;;;;;5.90;0.98;;;4.00;99.90;;;;;;5039553;28;20056;-69
2024/03/02 00:25:17;;;;;;;9.38;0.90;;;4.00;99.90;;;;;;5026358;28;20045;-70
2024/03/02 00:27:48;;;;;;;7.60;1.10;;;4.00;99.90;;;;;;5033071;28;20053;-70
2024/03/02 00:30:53;;;;;;;7.57;1.30;;;4.00;99.90;;;;;;5023155;28;20132;-69
2024/03/02 00:33:21;;;;;;;4.82;1.08;;;4.00;99.90;;;;;;5028949;28;20095;-69
2024/03/02 00:35:49;;;;;;;5.22;0.90;;;4.00;99.90;;;;;;5023345;28;20045;-69
2024/03/02 00:38:16;;;;;;;4.18;1.02;;;4.00;99.90;;;;;;5039129;28;20064;-69
2024/03/02 00:40:44;;;;;;;1.48;0.77;;;4.00;99.90;;;;;;5029860;28;20057;-68
2024/03/02 00:43:40;;;;;;;4.93;0.95;;;4.00;99.90;;;;;;5036016;28;20173;-69
2024/03/02 00:46:13;;;;;;;8.20;1.90;;;3.90;99.90;;;;;;5032041;28;20087;-68
2024/03/02 00:48:45;;;;;;;6.32;1.30;;;3.90;99.90;;;;;;5026373;28;20053;-69
2024/03/02 00:51:12;;;;;;;6.82;0.80;;;3.90;99.90;;;;;;5024180;28;20051;-69
2024/03/02 00:53:39;;;;;;;10.52;1.73;;;3.80;99.90;;;;;;5024119;28;20125;-70
2024/03/02 00:56:09;;;;;;;7.60;1.50;;;3.80;99.90;;;;;;5024710;28;20038;-69
2024/03/02 00:58:35;;;;;;;2.92;1.02;;;3.80;99.90;;;;;;5007354;28;20053;-67
2024/03/02 01:01:02;;;;;;;5.95;1.05;;;3.80;99.90;;;;;;5026378;28;20095;-68
2024/03/02 01:03:31;;;;;;;9.40;1.30;;;3.80;99.90;;;;;;5028958;28;20045;-69
2024/03/02 01:05:58;;;;;;;11.45;2.00;;;3.80;99.90;;;;;;5033495;28;20045;-69
2024/03/02 01:08:25;;;;;;;4.43;1.05;;;3.80;99.90;;;;;;5023572;28;20192;-68
2024/03/02 01:10:52;;;;;;;11.85;2.60;;;3.80;99.90;;;;;;5025733;28;20045;-69
2024/03/02 01:13:19;;;;;;;14.57;1.65;;;3.90;99.90;;;;;;5025271;28;20404;-69
2024/03/02 01:15:46;;;;;;;2.63;1.05;;;3.90;99.90;;;;;;5026098;28;20041;-69
2024/03/02 01:18:13;;;;;;;7.82;1.30;;;4.00;99.90;;;;;;5023954;28;20041;-69
2024/03/02 01:20:40;;;;;;;3.75;1.05;;;3.90;99.90;;;;;;5024724;28;20191;-68
2024/03/02 01:23:07;;;;;;;8.23;1.40;;;3.90;99.90;;;;;;5023903;28;20045;-70
2024/03/02 01:25:34;;;;;;;9.05;1.65;;;4.00;99.90;;;;;;5026510;28;20076;-69
2024/03/02 01:28:01;;;;;;;4.78;1.05;;;4.00;99.90;;;;;;5024962;28;20049;-69
2024/03/02 01:30:27;;;;;;;9.85;1.75;;;4.00;99.90;;;;;;5025550;28;20041;-69
2024/03/02 01:32:54;;;;;;;15.57;1.33;;;4.00;99.90;;;;;;5025200;28;20053;-69
2024/03/02 01:35:21;;;;;;;8.70;1.33;;;4.00;99.90;;;;;;5023647;28;20448;-68
2024/03/02 01:37:48;;;;;;;5.72;0.80;;;4.10;99.90;;;;;;5028285;28;20045;-69
2024/03/02 01:40:15;;;;;;;6.28;1.88;;;4.10;99.90;;;;;;5025432;28;20033;-67
2024/03/02 01:42:42;;;;;;;7.18;1.77;;;4.10;99.90;;;;;;5023932;28;20068;-68
2024/03/02 01:45:09;;;;;;;6.20;1.77;;;4.10;99.90;;;;;;5007530;28;20049;-69
2024/03/02 01:47:36;;;;;;;12.30;3.00;;;4.20;99.90;;;;;;5025077;28;20318;-68
2024/03/02 01:50:03;;;;;;;7.60;0.95;;;4.20;99.90;;;;;;5024089;28;20053;-69
2024/03/02 01:52:30;;;;;;;15.75;2.38;;;4.30;99.90;;;;;;5025998;28;20049;-66
2024/03/02 01:54:57;;;;;;;11.57;1.60;;;4.30;99.90;;;;;;5023359;28;20041;-67
2024/03/02 01:57:24;;;;;;;5.90;1.40;;;4.30;99.90;;;;;;5028886;28;20037;-67
2024/03/02 01:59:50;;;;;;;4.88;1.40;;;4.40;99.90;;;;;;5029482;28;20041;-66
2024/03/02 02:02:17;;;;;;;8.18;1.10;;;4.40;99.90;;;;;;5040718;28;20046;-67
2024/03/02 02:04:44;;;;;;;15.85;1.50;;;4.40;99.90;;;;;;5027459;28;20413;-69
2024/03/02 02:07:11;;;;;;;7.70;1.15;;;4.40;99.90;;;;;;5029617;28;20057;-67
2024/03/02 02:09:38;;;;;;;8.98;1.83;;;4.40;99.90;;;;;;5028349;28;20045;-70
2024/03/02 02:12:06;;;;;;;6.63;1.38;;;4.50;99.90;;;;;;5029507;28;20061;-68
2024/03/02 02:14:33;;;;;;;11.60;2.33;;;4.50;99.90;;;;;;5026434;28;20405;-70
2024/03/02 02:17:00;;;;;;;6.20;1.30;;;4.60;99.90;;;;;;5026261;28;20569;-67
2024/03/02 02:19:27;;;;;;;8.88;2.78;;;4.60;99.90;;;;;;5025863;28;20091;-67
2024/03/02 02:21:55;;;;;;;6.32;1.40;;;4.60;99.90;;;;;;5034603;28;20320;-69
2024/03/02 02:24:21;;;;;;;4.60;1.35;;;4.70;99.90;;;;;;5033385;28;20041;-68
2024/03/02 02:26:48;;;;;;;5.97;1.10;;;4.70;99.90;;;;;;5030489;28;20045;-69
2024/03/02 02:29:15;;;;;;;4.63;1.50;;;4.80;99.90;;;;;;5036425;28;20041;-66
2024/03/02 02:31:42;;;;;;;6.75;2.10;;;4.80;99.90;;;;;;5027673;28;20049;-67
2024/03/02 02:34:09;;;;;;;11.57;1.50;;;4.80;99.90;;;;;;5018010;28;20225;-67
2024/03/02 02:36:38;;;;;;;6.68;1.33;;;4.80;99.90;;;;;;5027847;28;20435;-67
2024/03/02 02:39:05;;;;;;;10.63;2.50;;;4.90;99.90;;;;;;5028220;28;20144;-67
2024/03/02 02:41:31;;;;;;;8.23;2.25;;;4.90;99.90;;;;;;5009019;28;20131;-68
2024/03/02 02:43:58;;;;;;;9.20;1.55;;;4.80;99.90;;;;;;5028358;28;20050;-69
2024/03/02 02:46:25;;;;;;;13.30;1.70;;;4.80;99.90;;;;;;5027652;28;20139;-68
2024/03/02 02:48:53;;;;;;;13.18;2.78;;;4.90;99.90;;;;;;5028149;28;20045;-68
2024/03/02 02:51:20;;;;;;;11.23;1.98;;;4.90;99.90;;;;;;5028515;28;20037;-68
2024/03/02 02:53:46;;;;;;;10.85;1.75;;;4.90;99.90;;;;;;5029061;28;20045;-69
2024/03/02 02:56:13;;;;;;;5.97;1.15;;;4.90;99.90;;;;;;5035014;28;20281;-69
2024/03/02 02:58:41;;;;;;;4.85;1.35;;;5.00;99.90;;;;;;5027458;28;20541;-68
2024/03/02 03:01:08;;;;;;;8.98;1.65;;;5.00;99.90;;;;;;5029043;28;20053;-68
2024/03/02 03:03:35;;;;;;;12.10;1.38;;;5.00;99.90;;;;;;5028245;28;20467;-68
2024/03/02 03:06:02;;;;;;;10.52;1.48;;;5.00;99.90;;;;;;5027896;28;20045;-68
2024/03/02 03:08:29;;;;;;;10.30;1.50;;;5.10;99.90;;;;;;5033026;28;20205;-68
2024/03/02 03:10:56;;;;;;;10.18;1.25;;;5.10;99.90;;;;;;5035067;28;20049;-69
2024/03/02 03:13:23;;;;;;;11.43;1.50;;;5.10;99.90;;;;;;5032864;28;20404;-68
2024/03/02 03:15:50;;;;;;;9.38;1.55;;;5.10;99.90;;;;;;5024696;28;20498;-68
2024/03/02 03:18:16;;;;;;;13.05;1.40;;;5.10;99.90;;;;;;5024296;28;20125;-67
2024/03/02 03:20:43;;;;;;;10.77;1.58;;;5.10;99.90;;;;;;5027750;28;20586;-67
2024/03/02 03:23:14;;;;;;;13.45;1.90;;;5.10;99.90;;;;;;5032419;28;20041;-68
2024/03/02 03:25:42;;;;;;;7.85;2.28;;;5.10;99.90;;;;;;5027367;28;20041;-70
2024/03/02 03:28:12;;;;;;;6.00;1.92;;;5.20;99.90;;;;;;5027919;28;20143;-68
2024/03/02 03:30:39;;;;;;;8.63;1.35;;;5.20;99.90;;;;;;5028279;28;20037;-69
2024/03/02 03:33:06;;;;;;;17.00;1.60;;;5.20;99.90;;;;;;5033355;28;20045;-69
2024/03/02 03:35:33;;;;;;;11.07;2.00;;;5.20;99.90;;;;;;5026926;28;20045;-69
2024/03/02 03:38:00;;;;;;;9.85;1.42;;;5.20;99.90;;;;;;5030842;28;20248;-68
2024/03/02 03:40:26;;;;;;;8.00;1.55;;;5.20;99.90;;;;;;5034653;28;20092;-69
2024/03/02 03:42:53;;;;;;;8.38;1.88;;;5.20;99.90;;;;;;5031577;28;20041;-68
2024/03/02 03:45:20;;;;;;;8.43;1.13;;;5.20;99.90;;;;;;5026608;28;20052;-68
2024/03/02 03:47:47;;;;;;;13.68;2.10;;;5.30;99.90;;;;;;5027737;28;20045;-69
2024/03/02 03:50:14;;;;;;;7.93;1.95;;;5.30;99.90;;;;;;5023210;28;20121;-69
2024/03/02 03:52:41;;;;;;;10.88;2.10;;;5.30;99.90;;;;;;5028619;28;20169;-69
2024/03/02 03:55:08;;;;;;;8.25;2.72;;;5.30;99.90;;;;;;5025239;28;20057;-69
2024/03/02 03:57:35;;;;;;;12.48;3.80;;;5.40;99.90;;;;;;5027889;28;20092;-69
2024/03/02 04:00:03;;;;;;;9.38;2.10;;;5.40;99.90;;;;;;5026863;28;20049;-69
2024/03/02 04:02:30;;;;;;;9.57;1.75;;;5.40;99.90;;;;;;5028930;28;20049;-68
2024/03/02 04:04:57;;;;;;;20.75;3.35;;;5.40;99.90;;;;;;5021293;28;20478;-68
2024/03/02 04:07:24;;;;;;;17.75;2.47;;;5.40;99.90;;;;;;5022938;28;20182;-68
2024/03/02 04:09:50;;;;;;;15.07;1.83;;;5.40;99.90;;;;;;5028935;28;20119;-68
2024/03/02 04:12:17;;;;;;;17.02;1.70;;;5.40;99.90;;;;;;5027348;28;20041;-68
2024/03/02 04:14:44;;;;;;;9.90;1.63;;;5.40;99.90;;;;;;5025700;28;20041;-68
2024/03/02 04:17:11;;;;;;;10.38;2.38;;;5.40;99.90;;;;;;5026180;28;20559;-68
2024/03/02 04:19:38;;;;;;;16.05;1.73;;;5.40;99.90;;;;;;5026653;28;20045;-68
2024/03/02 04:22:05;;;;;;;10.00;1.67;;;5.40;99.90;;;;;;5027647;28;20080;-69
2024/03/02 04:24:44;;;;;;;5.95;1.65;;;5.40;99.90;;;;;;5025078;28;20346;-69
2024/03/02 04:27:11;;;;;;;14.00;2.20;;;5.40;99.90;;;;;;5026451;28;20504;-68
2024/03/02 04:29:38;;;;;;;9.52;1.77;;;5.40;99.90;;;;;;5026857;28;20042;-67
2024/03/02 04:32:05;;;;;;;12.57;1.92;;;5.30;99.90;;;;;;5028162;28;20057;-68
2024/03/02 04:34:32;;;;;;;10.60;2.50;;;5.30;99.90;;;;;;5025789;28;20049;-68
2024/03/02 04:36:59;;;;;;;15.90;2.13;;;5.40;99.90;;;;;;5026145;28;20104;-68
2024/03/02 04:39:26;;;;;;;11.27;1.90;;;5.40;99.90;;;;;;5025462;28;20131;-69
2024/03/02 04:41:53;;;;;;;16.92;3.05;;;5.40;99.90;;;;;;5025151;28;20049;-68
2024/03/02 04:44:20;;;;;;;10.90;1.83;;;5.40;99.90;;;;;;5025466;28;20099;-68
2024/03/02 04:46:46;;;;;;;17.05;2.22;;;5.40;99.90;;;;;;5026810;28;20096;-67
2024/03/02 04:49:13;;;;;;;13.75;1.90;;;5.40;99.90;;;;;;5026078;28;20104;-68
2024/03/02 04:51:40;;;;;;;6.82;1.50;;;5.40;99.90;;;;;;5019610;28;20045;-67
2024/03/02 04:54:07;;;;;;;7.85;1.92;;;5.40;99.90;;;;;;5017234;28;20045;-67
2024/03/02 04:56:44;;;;;;;11.02;2.13;;;5.40;99.90;;;;;;5018074;28;20497;-69
2024/03/02 04:59:11;;;;;;;20.02;2.28;;;5.40;99.90;;;;;;5028941;28;20047;-68
2024/03/02 05:01:38;;;;;;;19.92;2.72;;;5.40;99.90;;;;;;5025078;28;20319;-68
2024/03/02 05:04:05;;;;;;;10.75;1.80;;;5.40;99.90;;;;;;5025421;28;20041;-67
2024/03/02 05:06:31;;;;;;;8.27;2.05;;;5.40;99.90;;;;;;5024314;28;20081;-67
2024/03/02 05:08:58;;;;;;;14.68;1.63;;;5.40;99.90;;;;;;5022947;28;20057;-67
2024/03/02 05:12:17;;;;;;;6.15;1.52;;;5.40;99.90;;;;;;5021594;28;20554;-67
2024/03/02 05:14:15;;;;;;;12.23;1.65;;;5.40;99.90;;;;;;5025872;28;20458;-69
2024/03/02 05:16:42;;;;;;;21.30;2.40;;;5.40;99.90;;;;;;5024489;28;20448;-69
2024/03/02 05:19:09;;;;;;;12.93;1.77;;;5.40;99.90;;;;;;5023759;28;20064;-67
2024/03/02 05:21:36;;;;;;;9.00;1.92;;;5.40;99.90;;;;;;5024575;28;20393;-69
2024/03/02 05:24:03;;;;;;;10.80;2.08;;;5.40;99.90;;;;;;5023967;28;20708;-68
2024/03/02 05:26:29;;;;;;;21.00;2.85;;;5.40;99.90;;;;;;5024748;28;20045;-68
2024/03/02 05:28:56;;;;;;;12.70;2.53;;;5.40;99.90;;;;;;5020564;28;20551;-68
2024/03/02 05:31:23;;;;;;;9.43;1.30;;;5.40;99.90;;;;;;5024724;28;20562;-67
2024/03/02 05:33:50;;;;;;;9.63;1.67;;;5.40;99.90;;;;;;5026156;28;20041;-67
2024/03/02 05:36:22;;;;;;;16.15;1.67;;;5.40;99.90;;;;;;5029372;28;20351;-67
2024/03/02 05:38:49;;;;;;;10.63;1.98;;;5.40;99.90;;;;;;5025557;28;20053;-68
2024/03/02 05:41:16;;;;;;;10.48;1.92;;;5.40;99.90;;;;;;5031144;28;20582;-68
2024/03/02 05:43:43;;;;;;;11.00;1.48;;;5.40;99.90;;;;;;5023643;28;20053;-68
2024/03/02 05:46:09;;;;;;;16.23;2.35;;;5.50;99.90;;;;;;5025405;28;20135;-68
2024/03/02 05:48:36;;;;;;;15.48;2.95;;;5.50;99.90;;;;;;5023868;28;20111;-68
2024/03/02 05:51:03;;;;;;;15.10;2.00;;;5.40;99.90;;;;;;5029504;28;20068;-68
2024/03/02 05:53:30;;;;;;;13.70;2.05;;;5.40;99.90;;;;;;5029457;28;20099;-68
2024/03/02 05:55:57;;;;;;;11.60;2.15;;;5.40;99.90;;;;;;5025970;28;20084;-67
2024/03/02 06:01:11;;;;;;;10.60;1.95;;;5.50;99.90;;;;;;5025181;28;20107;-68
2024/03/02 06:03:38;;;;;;;21.45;2.33;;;5.40;99.90;;;;;;5029537;28;20053;-68
2024/03/02 06:06:05;;;;;;;17.80;3.65;;;5.50;99.90;;;;;;5022364;28;20049;-67
2024/03/02 06:08:32;;;;;;;23.38;3.50;;;5.50;99.90;;;;;;5032939;28;20451;-67
2024/03/02 06:10:59;;;;;;;16.00;2.10;;;5.50;99.90;;;;;;5027468;28;20045;-67
2024/03/02 06:13:26;;;;;;;16.08;1.90;;;5.50;99.90;;;;;;5030062;28;20052;-68
2024/03/02 06:15:53;;;;;;;11.77;1.90;;;5.50;99.90;;;;;;5023707;28;20250;-68
2024/03/02 06:18:20;;;;;;;18.00;2.20;;;5.60;99.90;;;;;;5025627;28;20055;-68
2024/03/02 06:20:46;;;;;;;19.27;2.60;;;5.60;99.90;;;;;;5021414;28;20042;-68
2024/03/02 06:23:13;;;;;;;11.05;2.42;;;5.60;99.90;;;;;;5032527;28;20046;-68
2024/03/02 06:25:40;;;;;;;15.80;3.13;;;5.70;99.90;;;;;;5025367;28;20316;-68
2024/03/02 06:28:07;;;;;;;9.18;1.90;;;5.70;99.90;;;;;;5024126;28;20053;-68
2024/03/02 06:30:34;;;;;;;16.70;2.63;;;5.70;99.90;;;;;;5020777;28;20045;-68
2024/03/02 06:33:01;;;;;;;14.98;2.70;;;5.70;99.90;;;;;;5025898;28;20041;-68
2024/03/02 06:35:28;;;;;;;15.02;2.40;;;5.70;99.90;;;;;;5026046;28;20049;-68
2024/03/02 06:37:54;;;;;;;16.63;3.03;;;5.80;99.90;;;;;;5028435;28;20080;-68
2024/03/02 06:40:21;;;;;;;20.67;4.45;;;5.80;99.90;;;;;;5026124;28;20084;-68
2024/03/02 06:42:48;;;;;;;12.13;1.85;;;5.80;99.90;;;;;;5026788;28;20107;-68
2024/03/02 06:45:15;;;;;;;14.35;2.28;;;5.80;99.90;;;;;;5026090;28;20136;-68
2024/03/02 06:47:42;;;;;;;6.93;1.65;;;5.80;99.90;;;;;;5027314;28;20053;-69
2024/03/02 06:50:09;;;;;;;13.73;3.33;;;5.80;99.90;;;;;;5027814;28;20095;-68
2024/03/02 06:52:36;;;;;;;11.27;1.85;;;5.80;99.90;;;;;;5028031;28;20416;-67
2024/03/02 06:55:04;;;;;;;15.27;1.83;;;5.80;99.90;;;;;;5027774;28;20068;-68
2024/03/02 06:57:31;;;;;;;12.50;2.42;;;5.80;99.90;;;;;;5028083;28;20456;-68
2024/03/02 06:59:58;;;;;;;15.02;1.95;;;5.80;99.90;;;;;;5022394;28;20080;-69
2024/03/02 07:02:26;;;;;;;12.25;1.75;;;5.80;99.90;;;;;;4674152;28;10000027;-68
2024/03/02 07:04:54;;;;;;;18.65;2.67;;;5.70;99.90;;;;;;5021850;28;20129;-68
2024/03/02 07:07:20;;;;;;;18.13;2.53;;;5.70;99.90;;;;;;5023644;28;20057;-68
2024/03/02 07:09:48;;;;;;;17.10;2.10;;;5.70;99.90;;;;;;5020967;28;20053;-68
2024/03/02 07:12:15;;;;;;;10.57;1.33;;;5.80;99.90;;;;;;5020847;28;20416;-67
2024/03/02 07:15:03;;;;;;;19.80;4.03;;;5.80;99.90;;;;;;5007586;28;20049;-67
2024/03/02 07:17:31;;;;;;;8.60;1.45;;;5.80;99.90;;;;;;5018981;28;20128;-68
2024/03/02 07:19:58;;;;;;;12.27;1.88;;;5.80;99.90;;;;;;5025265;28;20045;-68
2024/03/02 07:22:25;;;;;;;13.43;2.20;;;5.80;99.90;;;;;;5016531;28;20060;-67
2024/03/02 07:24:52;;;;;;;7.50;1.55;;;5.80;99.90;;;;;;5024377;28;20515;-67
2024/03/02 07:27:18;;;;;;;12.50;1.40;;;5.80;99.90;;;;;;5024150;28;20080;-67
2024/03/02 07:29:45;;;;;;;12.55;1.75;;;5.80;99.90;;;;;;5023354;28;20053;-68
2024/03/02 07:32:12;;;;;;;16.20;1.42;;;5.80;99.90;;;;;;5024740;28;20049;-67
2024/03/02 07:34:39;;;;;;;9.82;1.42;;;5.90;99.90;;;;;;5025636;28;20053;-67
2024/03/02 07:37:06;;;;;;;9.40;1.55;;;5.90;99.90;;;;;;5023753;28;20057;-68
2024/03/02 07:39:33;;;;;;;6.43;1.65;;;6.00;99.90;;;;;;5018569;28;20041;-68
2024/03/02 07:42:00;;;;;;;15.98;2.08;;;6.00;99.90;;;;;;5021521;28;20107;-68
2024/03/02 07:44:27;;;;;;;6.65;1.48;;;6.10;99.90;;;;;;5025050;28;20049;-68
2024/03/02 07:46:54;;;;;;;8.23;1.50;;;6.20;99.90;;;;;;5026148;28;20114;-67
2024/03/02 07:49:20;;;;;;;12.93;1.98;;;6.30;99.90;;;;;;5020679;28;20103;-66
2024/03/02 07:51:47;;;;;;;12.23;2.15;;;6.30;99.90;;;;;;5020711;28;20140;-67
2024/03/02 07:54:14;;;;;;;10.70;1.70;;;6.40;99.90;;;;;;5030127;28;20172;-67
2024/03/02 07:56:41;;;;;;;6.10;1.30;;;6.40;99.90;;;;;;5024447;28;20069;-67
2024/03/02 07:59:08;;;;;;;6.40;1.55;;;6.40;99.90;;;;;;5023666;28;20061;-68
2024/03/02 08:01:35;;;;;;;11.57;1.80;;;6.40;99.90;;;;;;5023057;28;20111;-69
2024/03/02 08:04:03;;;;;;;5.18;2.28;;;6.40;99.90;;;;;;5026447;28;20103;-68
2024/03/02 08:06:30;;;;;;;4.50;1.40;;;6.40;99.90;;;;;;5019456;28;20299;-67
2024/03/02 08:08:58;;;;;;;11.38;2.38;;;6.40;99.90;;;;;;5023039;28;20128;-67
2024/03/02 08:11:25;;;;;;;8.60;3.70;;;6.40;99.90;;;;;;5015240;28;20049;-67
2024/03/02 08:13:54;;;;;;;8.50;1.10;;;6.40;99.90;;;;;;5015868;28;20416;-68
2024/03/02 08:16:21;;;;;;;3.03;1.50;;;6.40;99.90;;;;;;5020813;28;20107;-68
2024/03/02 08:18:49;;;;;;;11.52;2.03;;;6.40;99.90;;;;;;5005691;28;20057;-68
2024/03/02 08:21:16;;;;;;;6.65;1.33;;;6.40;99.90;;;;;;5021150;28;20088;-68
2024/03/02 08:23:43;;;;;;;6.72;1.35;;;6.50;99.90;;;;;;5022772;28;20049;-68
2024/03/02 08:26:11;;;;;;;6.18;1.15;;;6.50;99.90;;;;;;5005000;28;20041;-68
2024/03/02 08:28:40;;;;;;;10.48;1.15;;;6.60;99.90;;;;;;5021430;28;20661;-68
2024/03/02 08:31:07;;;;;;;10.48;1.38;;;6.70;99.90;;;;;;5020364;28;20053;-69
2024/03/02 08:33:34;;;;;;;10.43;1.70;;;6.80;99.90;;;;;;5023513;28;20049;-68
2024/03/02 08:36:05;;;;;;;14.07;2.00;;;6.90;99.90;;;;;;5020881;28;20120;-69
2024/03/02 08:38:31;;;;;;;15.68;2.28;;;6.90;99.90;;;;;;5020180;28;20076;-69
2024/03/02 08:40:58;;;;;;;7.93;1.60;;;7.00;99.90;;;;;;5017093;28;20084;-69
2024/03/02 08:43:25;;;;;;;10.25;1.88;;;7.00;99.90;;;;;;5023683;28;20497;-67
2024/03/02 08:45:52;;;;;;;9.23;1.63;;;7.10;99.90;;;;;;5012881;28;20053;-67
2024/03/02 08:48:20;;;;;;;11.77;1.77;;;7.10;99.90;;;;;;5013564;28;20053;-67
2024/03/02 08:50:47;;;;;;;9.15;1.30;;;7.00;99.90;;;;;;5023828;28;20046;-68
2024/03/02 08:53:18;;;;;;;4.78;2.10;;;7.00;99.90;;;;;;5023106;28;20053;-68
2024/03/02 08:55:46;;;;;;;10.82;1.42;;;6.80;99.90;;;;;;5020727;28;20045;-68
2024/03/02 08:58:13;;;;;;;10.95;1.80;;;6.70;99.90;;;;;;5018249;28;20104;-68
2024/03/02 09:00:40;;;;;;;9.73;1.50;;;6.60;99.90;;;;;;5019896;28;20081;-67
2024/03/02 09:03:07;;;;;;;5.88;0.85;;;6.40;99.90;;;;;;5015820;28;20081;-67
2024/03/02 09:05:34;;;;;;;3.72;1.35;;;6.30;99.90;;;;;;5019548;28;20115;-68
2024/03/02 09:08:03;;;;;;;4.43;0.73;;;6.30;99.90;;;;;;5017444;28;20112;-67
2024/03/02 09:10:30;;;;;;;4.82;0.80;;;6.20;99.90;;;;;;5021554;28;20049;-68
2024/03/02 09:12:57;;;;;;;6.82;1.80;;;6.10;99.90;;;;;;5018262;28;20048;-69
2024/03/02 09:15:24;;;;;;;4.30;0.95;;;6.10;99.90;;;;;;5011617;28;20058;-69
2024/03/02 09:17:50;;;;;;;6.47;0.80;;;6.10;99.90;;;;;;5033113;28;20085;-69
2024/03/02 09:20:17;;;;;;;8.10;1.58;;;6.20;99.90;;;;;;5017144;28;20048;-70
2024/03/02 09:22:47;;;;;;;5.15;1.00;;;6.50;99.90;;;;;;5023233;28;20041;-69
2024/03/02 09:25:14;;;;;;;3.30;1.40;;;6.90;99.90;;;;;;5022320;28;20474;-68
2024/03/02 09:27:41;;;;;;;4.95;1.45;;;7.20;99.90;;;;;;5022767;28;20532;-66
2024/03/02 09:30:09;;;;;;;6.57;0.93;;;7.20;99.90;;;;;;5018385;28;20132;-68
2024/03/02 09:32:37;;;;;;;7.22;0.93;;;7.20;99.90;;;;;;5018521;28;20053;-69
2024/03/02 09:35:04;;;;;;;6.43;1.00;;;7.40;99.90;;;;;;5022813;28;20120;-68
2024/03/02 09:37:31;;;;;;;7.15;1.30;;;7.60;99.90;;;;;;5020104;28;20445;-68
2024/03/02 09:39:58;;;;;;;4.63;1.15;;;7.60;99.90;;;;;;5017039;28;20046;-68
2024/03/02 09:42:26;;;;;;;5.80;1.10;;;7.60;99.90;;;;;;5014407;28;20042;-68
2024/03/02 09:44:53;;;;;;;9.13;1.33;;;7.50;99.90;;;;;;5019710;28;20103;-69
2024/03/02 09:47:20;;;;;;;7.50;1.38;;;7.50;99.90;;;;;;5023847;28;20041;-69
2024/03/02 09:49:47;;;;;;;9.90;1.55;;;7.40;99.90;;;;;;5023563;28;20049;-69
2024/03/02 09:52:14;;;;;;;7.60;1.35;;;7.40;99.90;;;;;;5015318;28;20045;-69
2024/03/02 09:54:41;;;;;;;9.60;1.33;;;7.40;99.90;;;;;;5016681;28;20129;-68
2024/03/02 09:57:09;;;;;;;6.72;1.45;;;7.40;99.90;;;;;;5028355;28;20061;-68
2024/03/02 09:59:36;;;;;;;2.85;0.93;;;7.30;99.90;;;;;;5016440;28;20053;-69
2024/03/02 10:02:03;;;;;;;3.42;0.93;;;7.20;99.90;;;;;;5024299;28;20050;-69
2024/03/02 10:04:35;;;;;;;5.78;0.68;;;7.00;99.90;;;;;;5021546;28;20052;-70
2024/03/02 10:07:16;;;;;;;3.80;0.90;;;6.90;99.90;;;;;;5017256;28;20042;-69
2024/03/02 10:09:45;;;;;;;4.43;0.90;;;6.70;99.90;;;;;;5021941;28;20057;-68
2024/03/02 10:12:14;;;;;;;6.72;1.25;;;6.60;99.90;;;;;;5015206;28;20060;-68
2024/03/02 10:14:41;;;;;;;7.85;1.55;;;6.50;99.90;;;;;;5025796;28;20139;-68
2024/03/02 10:17:12;;;;;;;5.32;0.90;;;6.40;99.90;;;;;;5027531;28;20119;-69
2024/03/02 10:19:39;;;;;;;2.80;0.95;;;6.40;99.90;;;;;;5025547;28;20085;-68
2024/03/02 10:22:07;;;;;;;7.45;1.20;;;6.40;99.90;;;;;;5020476;28;20053;-70
2024/03/02 10:24:44;;;;;;;10.23;1.80;;;6.50;99.90;;;;;;5007653;28;20057;-69
2024/03/02 10:27:16;;;;;;;3.63;0.77;;;6.70;99.90;;;;;;5027815;28;20223;-69
2024/03/02 10:29:45;;;;;;;3.28;0.82;;;7.00;99.90;;;;;;5021590;28;20079;-70
2024/03/02 10:32:12;;;;;;;13.43;1.23;;;7.00;99.90;;;;;;5026261;28;20288;-70
2024/03/02 10:34:43;;;;;;;5.43;0.55;;;7.00;99.90;;;;;;5022341;28;20041;-70
2024/03/02 10:37:11;;;;;;;1.75;0.57;;;6.90;99.90;;;;;;5026280;28;20042;-67
2024/03/02 10:39:40;;;;;;;2.03;0.63;;;6.60;99.90;;;;;;5028735;28;20456;-69
2024/03/02 10:42:08;;;;;;;3.50;0.50;;;6.50;99.90;;;;;;5025790;28;20416;-69
2024/03/02 10:44:35;;;;;;;2.60;0.82;;;6.40;99.90;;;;;;5029487;28;20360;-66
2024/03/02 10:47:03;;;;;;;3.25;0.40;;;6.40;99.90;;;;;;5026517;28;20042;-69
2024/03/02 10:49:31;;;;;;;4.63;2.25;;;6.30;99.90;;;;;;5023385;28;20058;-69
2024/03/02 10:52:01;;;;;;;2.92;0.60;;;6.20;99.90;;;;;;5028342;28;20100;-70
2024/03/02 10:54:35;;;;;;;0.98;0.40;;;6.10;99.90;;;;;;5019576;28;20057;-70
2024/03/02 10:57:05;;;;;;;0.63;0.40;;;6.10;99.90;;;;;;5025474;28;20145;-70
2024/03/02 10:59:36;;;;;;;6.57;1.85;;;6.10;99.90;;;;;;5017656;28;20497;-70
2024/03/02 11:02:03;;;;;;;1.10;0.80;;;6.00;99.90;;;;;;5027725;28;20122;-68
2024/03/02 11:04:32;;;;;;;2.13;0.50;;;6.10;99.90;;;;;;5018965;28;20123;-68
2024/03/02 11:07:10;;;;;;;3.30;0.30;;;6.10;99.90;;;;;;5021045;28;20061;-68
2024/03/02 11:09:53;;;;;;;4.72;0.98;;;6.10;99.90;;;;;;5029712;28;20053;-69
2024/03/02 11:12:23;;;;;;;0.98;0.50;;;6.20;99.90;;;;;;5026340;28;20501;-69
2024/03/02 11:14:52;;;;;;;1.48;0.50;;;6.30;99.90;;;;;;5026305;28;20050;-70
2024/03/02 11:17:18;;;;;;;0.38;0.35;;;6.30;99.90;;;;;;5027463;28;20455;-69
2024/03/02 11:19:45;;;;;;;2.08;0.40;;;6.20;99.90;;;;;;5022013;28;20104;-69
2024/03/02 11:22:12;;;;;;;5.75;0.75;;;6.20;99.90;;;;;;5024040;28;20073;-69
2024/03/02 11:24:39;;;;;;;1.75;0.57;;;6.10;99.90;;;;;;5021833;28;20321;-68
2024/03/02 11:27:12;;;;;;;0.43;0.40;;;5.90;99.90;;;;;;5025702;28;20535;-69
2024/03/02 11:29:42;;;;;;;1.45;0.40;;;5.70;99.90;;;;;;5020158;28;20152;-68
2024/03/02 11:32:21;;;;;;;0.20;0.20;;;5.70;99.90;;;;;;5016468;28;20049;-70
2024/03/02 11:34:51;;;;;;;1.10;0.30;;;5.80;99.90;;;;;;5025560;28;20111;-69
2024/03/02 11:37:22;;;;;;;0.90;0.50;;;6.00;99.90;;;;;;5017074;28;20100;-69
2024/03/02 11:39:49;;;;;;;0.30;0.25;;;6.10;99.90;;;;;;5020728;28;20103;-68
2024/03/02 11:42:16;;;;;;;0.47;0.32;;;6.30;99.90;;;;;;5021489;28;20038;-69
2024/03/02 11:44:45;;;;;;;2.67;0.50;;;6.40;99.90;;;;;;5038692;28;20476;-69
2024/03/02 11:47:16;;;;;;;0.45;0.40;;;6.50;99.90;;;;;;5019270;28;20052;-69
2024/03/02 11:49:50;;;;;;;1.63;0.40;;;6.60;99.90;;;;;;5005500;28;20489;-68
2024/03/02 11:52:17;;;;;;;1.27;0.40;;;6.60;99.90;;;;;;5018629;28;20053;-69
2024/03/02 11:54:49;;;;;;;1.08;0.47;;;6.70;99.90;;;;;;5022199;28;20049;-68
2024/03/02 11:57:22;;;;;;;0.10;0.10;;;6.70;99.90;;;;;;5031744;28;20049;-70
2024/03/02 11:59:52;;;;;;;0.15;0.15;;;6.90;99.90;;;;;;5026453;28;20047;-68
2024/03/02 12:02:19;;;;;;;0.50;0.45;;;7.00;99.90;;;;;;5027191;28;20057;-69
2024/03/02 12:04:48;;;;;;;0.85;0.20;;;7.00;99.90;;;;;;5022112;28;20639;-69
2024/03/02 12:07:22;;;;;;;1.45;0.35;;;6.90;99.90;;;;;;5022752;28;20087;-71
2024/03/02 12:09:50;;;;;;;1.52;0.43;;;7.00;99.90;;;;;;5021915;28;20063;-69
2024/03/02 12:12:20;;;;;;;0.98;0.20;;;7.10;99.90;;;;;;5017590;28;20049;-69
2024/03/02 12:14:52;;;;;;;0.20;0.20;;;7.20;99.90;;;;;;5025116;28;20128;-70
2024/03/02 12:17:19;;;;;;;0.88;0.30;;;7.20;99.90;;;;;;5017615;28;20049;-70
2024/03/02 12:19:46;;;;;;;1.58;0.30;;;7.20;99.90;;;;;;5022045;28;20057;-68
2024/03/02 12:22:13;;;;;;;0.70;0.50;;;7.10;99.90;;;;;;5024597;28;20083;-70
2024/03/02 12:24:40;;;;;;;1.00;0.38;;;7.10;99.90;;;;;;5022725;28;20421;-69
2024/03/02 12:27:07;;;;;;;3.83;1.73;;;7.10;99.90;;;;;;4674862;28;9999739;-70
2024/03/02 12:29:34;;;;;;;1.88;0.47;;;7.10;99.90;;;;;;5020187;28;20053;-69
2024/03/02 12:32:02;;;;;;;2.35;0.57;;;7.20;99.90;;;;;;5036091;28;20049;-69
2024/03/02 12:34:29;;;;;;;1.13;0.30;;;7.20;99.90;;;;;;5022095;28;20057;-69
2024/03/02 12:36:56;;;;;;;1.00;0.65;;;7.40;99.90;;;;;;5014714;28;20085;-69
2024/03/02 12:39:23;;;;;;;2.17;0.40;;;7.50;99.90;;;;;;5018129;28;20049;-69
2024/03/02 12:41:50;;;;;;;3.45;0.38;;;7.70;99.90;;;;;;5013588;28;20049;-69
2024/03/02 12:44:18;;;;;;;1.35;0.40;;;7.80;99.90;;;;;;5016458;28;20152;-69
2024/03/02 12:46:45;;;;;;;1.45;0.32;;;8.00;99.90;;;;;;5021399;28;20058;-69
2024/03/02 12:49:13;;;;;;;1.38;0.57;;;8.10;99.90;;;;;;5021311;28;20072;-69
2024/03/02 12:51:40;;;;;;;2.17;0.63;;;8.00;99.90;;;;;;5022392;28;20642;-69
2024/03/02 12:54:10;;;;;;;2.85;0.70;;;8.00;99.90;;;;;;5022705;28;20046;-69
2024/03/02 12:56:37;;;;;;;1.75;0.70;;;8.00;99.90;;;;;;5021601;28;20050;-69
2024/03/02 12:59:05;;;;;;;2.20;1.08;;;8.10;99.90;;;;;;5017758;28;20049;-69